createdAt,value
2019-05-25T00:02:07.047Z,12.63
2019-05-25T00:04:35.492Z,11.03
2019-05-25T00:07:05.524Z,8.88
2019-05-25T00:09:33.965Z,11.93
2019-05-25T00:12:02.423Z,10.28
2019-05-25T00:14:30.934Z,13.53
2019-05-25T00:16:59.362Z,6.70
2019-05-25T00:19:27.824Z,14.00
2019-05-25T00:21:56.263Z,11.83
2019-05-25T00:24:24.719Z,15.68
2019-05-25T00:26:53.169Z,15.58
2019-05-25T00:29:21.640Z,13.43
2019-05-25T00:31:50.066Z,10.30
2019-05-25T00:34:18.529Z,11.93
2019-05-25T00:36:46.963Z,16.15
2019-05-25T00:39:15.508Z,12.07
2019-05-25T00:41:43.952Z,13.90
2019-05-25T00:44:12.385Z,12.15
2019-05-25T00:46:40.912Z,15.93
2019-05-25T00:49:09.358Z,14.45
2019-05-25T00:51:37.805Z,9.55
2019-05-25T00:54:06.248Z,12.40
2019-05-25T00:56:34.693Z,10.78
2019-05-25T00:59:03.206Z,14.00
2019-05-25T01:01:31.716Z,17.87
2019-05-25T01:04:02.971Z,14.38
2019-05-25T01:06:31.411Z,13.45
2019-05-25T01:08:59.876Z,14.38
2019-05-25T01:11:28.308Z,20.88
2019-05-25T01:13:57.074Z,15.65
2019-05-25T01:16:25.518Z,12.85
2019-05-25T01:18:53.980Z,6.70
2019-05-25T01:21:22.409Z,13.22
2019-05-25T01:23:50.856Z,12.03
2019-05-25T01:26:19.294Z,17.87
2019-05-25T01:28:48.790Z,12.23
2019-05-25T01:31:17.249Z,15.98
2019-05-25T01:33:45.690Z,15.98
2019-05-25T01:36:14.144Z,13.65
2019-05-25T01:38:42.583Z,18.32
2019-05-25T01:41:11.027Z,15.50
2019-05-25T01:43:39.475Z,12.40
2019-05-25T01:46:07.917Z,10.82
2019-05-25T01:48:36.379Z,14.87
2019-05-25T01:51:04.886Z,9.63
2019-05-25T01:53:33.345Z,12.43
2019-05-25T01:56:01.801Z,19.20
2019-05-25T01:58:30.257Z,18.25
2019-05-25T02:00:58.699Z,8.75
2019-05-25T02:03:27.518Z,15.50
2019-05-25T02:05:55.979Z,15.32
2019-05-25T02:08:33.508Z,18.25
2019-05-25T02:11:09.456Z,12.88
2019-05-25T02:13:38.866Z,12.55
2019-05-25T02:16:10.336Z,14.85
2019-05-25T02:18:38.771Z,16.23
2019-05-25T02:21:07.216Z,13.22
2019-05-25T02:23:35.679Z,13.50
2019-05-25T02:26:04.293Z,15.98
2019-05-25T02:28:32.823Z,17.05
2019-05-25T02:31:01.261Z,13.20
2019-05-25T02:33:29.702Z,12.18
2019-05-25T02:36:14.458Z,14.00
2019-05-25T02:38:45.877Z,13.98
2019-05-25T02:41:14.324Z,13.05
2019-05-25T02:43:42.765Z,15.48
2019-05-25T02:46:11.288Z,16.02
2019-05-25T02:48:39.723Z,14.13
2019-05-25T02:51:08.177Z,18.02
2019-05-25T02:53:36.605Z,13.28
2019-05-25T02:56:05.138Z,15.83
2019-05-25T02:58:33.584Z,14.25
2019-05-25T03:01:02.205Z,15.88
2019-05-25T03:03:30.636Z,14.87
2019-05-25T03:05:59.963Z,16.20
2019-05-25T03:08:28.536Z,8.78
2019-05-25T03:10:58.322Z,20.62
2019-05-25T03:13:27.949Z,17.17
2019-05-25T03:15:56.404Z,14.53
2019-05-25T03:18:24.861Z,15.93
2019-05-25T03:20:53.295Z,18.60
2019-05-25T03:23:21.738Z,14.35
2019-05-25T03:25:50.465Z,20.48
2019-05-25T03:28:19.482Z,14.53
2019-05-25T03:30:48.051Z,20.90
2019-05-25T03:33:16.509Z,14.80
2019-05-25T03:35:44.967Z,22.67
2019-05-25T03:38:13.447Z,26.73
2019-05-25T03:40:41.899Z,13.05
2019-05-25T03:43:10.336Z,29.48
2019-05-25T03:45:38.788Z,10.98
2019-05-25T03:48:07.369Z,13.08
2019-05-25T03:50:35.819Z,17.15
2019-05-25T03:53:05.982Z,10.15
2019-05-25T03:55:34.432Z,13.78
2019-05-25T03:58:02.881Z,7.05
2019-05-25T04:00:36.774Z,12.82
2019-05-25T04:03:06.080Z,14.70
2019-05-25T04:05:34.771Z,13.10
2019-05-25T04:08:03.369Z,18.40
2019-05-25T04:10:31.826Z,13.40
2019-05-25T04:13:00.264Z,13.00
2019-05-25T04:15:28.792Z,12.10
2019-05-25T04:17:57.224Z,12.10
2019-05-25T04:20:28.678Z,14.43
2019-05-25T04:23:08.329Z,14.50
2019-05-25T04:25:36.788Z,12.68
2019-05-25T04:28:05.395Z,11.10
2019-05-25T04:30:33.852Z,13.60
2019-05-25T04:33:02.312Z,21.60
2019-05-25T04:35:30.830Z,15.90
2019-05-25T04:37:59.288Z,13.98
2019-05-25T04:40:28.730Z,10.53
2019-05-25T04:42:57.152Z,7.40
2019-05-25T04:45:25.592Z,11.53
2019-05-25T04:47:54.052Z,7.58
2019-05-25T04:50:22.631Z,6.95
2019-05-25T04:52:51.081Z,6.08
2019-05-25T04:55:19.526Z,17.65
2019-05-25T04:57:48.043Z,10.70
2019-05-25T05:00:16.634Z,8.10
2019-05-25T05:02:45.067Z,4.80
2019-05-25T05:05:14.160Z,10.30
2019-05-25T05:07:42.606Z,12.93
2019-05-25T05:10:11.489Z,11.53
2019-05-25T05:12:39.939Z,22.90
2019-05-25T05:15:08.756Z,14.20
2019-05-25T05:17:37.334Z,11.40
2019-05-25T05:20:08.280Z,10.98
2019-05-25T05:22:36.734Z,9.95
2019-05-25T05:25:06.199Z,14.13
2019-05-25T05:27:34.663Z,15.25
2019-05-25T05:30:08.515Z,11.03
2019-05-25T05:32:37.115Z,16.62
2019-05-25T05:35:09.576Z,11.70
2019-05-25T05:37:39.675Z,13.98
2019-05-25T05:40:08.763Z,13.30
2019-05-25T05:42:39.430Z,7.67
2019-05-25T05:45:09.019Z,9.28
2019-05-25T05:47:37.639Z,10.43
2019-05-25T05:50:08.334Z,9.25
2019-05-25T05:52:39.986Z,12.03
2019-05-25T05:55:11.179Z,7.05
2019-05-25T05:57:39.629Z,9.78
2019-05-25T06:00:10.023Z,9.03
2019-05-25T06:02:38.463Z,8.93
2019-05-25T06:05:07.148Z,6.62
2019-05-25T06:07:54.942Z,10.25
2019-05-25T06:10:23.535Z,10.65
2019-05-25T06:12:51.975Z,8.25
2019-05-25T06:15:20.413Z,9.08
2019-05-25T06:17:48.861Z,6.83
2019-05-25T06:20:17.372Z,9.68
2019-05-25T06:22:45.851Z,8.38
2019-05-25T06:25:14.433Z,6.12
2019-05-25T06:27:45.738Z,11.35
2019-05-25T06:30:14.577Z,12.90
2019-05-25T06:32:43.107Z,10.65
2019-05-25T06:35:11.869Z,7.97
2019-05-25T06:37:40.324Z,6.22
2019-05-25T06:40:09.507Z,11.40
2019-05-25T06:42:38.175Z,8.10
2019-05-25T06:45:07.848Z,6.97
2019-05-25T06:47:36.304Z,6.60
2019-05-25T06:50:08.607Z,8.80
2019-05-25T06:52:37.065Z,5.87
2019-05-25T06:55:07.407Z,8.38
2019-05-25T06:57:43.223Z,5.50
2019-05-25T07:00:10.063Z,6.83
2019-05-25T07:02:38.586Z,7.28
2019-05-25T07:05:08.581Z,8.50
2019-05-25T07:07:38.681Z,4.03
2019-05-25T07:10:08.394Z,5.53
2019-05-25T07:12:36.868Z,6.47
2019-05-25T07:15:09.131Z,5.58
2019-05-25T07:17:37.560Z,7.90
2019-05-25T07:20:08.668Z,4.35
2019-05-25T07:22:37.192Z,3.75
2019-05-25T07:25:06.535Z,7.05
2019-05-25T07:27:35.060Z,6.70
2019-05-25T07:30:04.650Z,6.92
2019-05-25T07:32:33.113Z,10.13
2019-05-25T07:35:01.585Z,3.02
2019-05-25T07:37:30.074Z,6.60
2019-05-25T07:39:59.092Z,6.03
2019-05-25T07:42:28.884Z,5.85
2019-05-25T07:44:57.323Z,3.17
2019-05-25T07:47:25.776Z,4.47
2019-05-25T07:49:54.221Z,5.53
2019-05-25T07:52:22.680Z,7.90
2019-05-25T07:54:51.132Z,6.58
2019-05-25T07:57:19.577Z,6.60
2019-05-25T07:59:48.099Z,6.50
2019-05-25T08:02:16.540Z,5.90
2019-05-25T08:04:45.050Z,4.22
2019-05-25T08:07:13.743Z,3.65
2019-05-25T08:09:42.192Z,3.05
2019-05-25T08:12:10.648Z,3.72
2019-05-25T08:14:39.071Z,6.85
2019-05-25T08:17:07.663Z,5.75
2019-05-25T08:19:36.115Z,3.87
2019-05-25T08:22:04.809Z,2.17
2019-05-25T08:24:33.244Z,4.58
2019-05-25T08:27:01.703Z,6.50
2019-05-25T08:29:30.215Z,10.55
2019-05-25T08:31:58.655Z,3.47
2019-05-25T08:34:27.092Z,4.58
2019-05-25T08:36:55.610Z,4.83
2019-05-25T08:39:24.049Z,9.60
2019-05-25T08:41:52.491Z,4.45
2019-05-25T08:44:20.932Z,6.42
2019-05-25T08:46:49.383Z,8.80
2019-05-25T08:49:17.830Z,8.58
2019-05-25T08:51:46.287Z,4.47
2019-05-25T08:54:14.747Z,3.25
2019-05-25T08:56:43.200Z,4.17
2019-05-25T08:59:11.636Z,5.60
2019-05-25T09:01:40.082Z,5.42
2019-05-25T09:04:08.584Z,3.83
2019-05-25T09:06:39.829Z,3.12
2019-05-25T09:09:08.761Z,3.35
2019-05-25T09:11:37.258Z,3.42
2019-05-25T09:14:05.786Z,1.85
2019-05-25T09:16:34.212Z,7.20
2019-05-25T09:19:02.662Z,3.50
2019-05-25T09:21:31.107Z,2.40
2019-05-25T09:23:59.546Z,4.62
2019-05-25T09:26:27.988Z,5.78
2019-05-25T09:29:04.511Z,8.30
2019-05-25T09:31:27.781Z,3.47
2019-05-25T09:33:56.235Z,3.67
2019-05-25T09:36:24.798Z,7.97
2019-05-25T09:38:53.236Z,8.65
2019-05-25T09:41:21.676Z,4.35
2019-05-25T09:43:50.119Z,2.72
2019-05-25T09:46:18.716Z,3.33
2019-05-25T09:48:47.297Z,3.72
2019-05-25T09:51:16.085Z,6.90
2019-05-25T09:53:44.658Z,5.05
2019-05-25T09:56:13.124Z,2.02
2019-05-25T09:58:41.576Z,4.53
2019-05-25T10:01:10.085Z,3.55
2019-05-25T10:03:38.535Z,6.22
2019-05-25T10:06:11.495Z,4.78
2019-05-25T10:08:37.255Z,3.77
2019-05-25T10:11:05.687Z,6.70
2019-05-25T10:13:34.143Z,0.82
2019-05-25T10:16:02.626Z,4.92
2019-05-25T10:18:31.148Z,2.22
2019-05-25T10:20:59.638Z,1.35
2019-05-25T10:23:28.080Z,6.00
2019-05-25T10:25:56.528Z,3.92
2019-05-25T10:28:24.968Z,5.05
2019-05-25T10:30:53.424Z,4.03
2019-05-25T10:33:22.009Z,3.15
2019-05-25T10:35:50.485Z,4.15
2019-05-25T10:38:18.920Z,2.85
2019-05-25T10:40:47.359Z,2.42
2019-05-25T10:43:15.894Z,4.15
2019-05-25T10:45:45.841Z,6.62
2019-05-25T10:48:14.305Z,3.25
2019-05-25T10:50:43.648Z,4.30
2019-05-25T10:53:13.809Z,6.85
2019-05-25T10:55:42.251Z,3.83
2019-05-25T10:58:10.694Z,7.33
2019-05-25T11:00:39.213Z,6.85
2019-05-25T11:03:08.785Z,6.35
2019-05-25T11:05:38.799Z,2.12
2019-05-25T11:08:07.243Z,4.08
2019-05-25T11:10:35.742Z,3.92
2019-05-25T11:13:04.205Z,7.10
2019-05-25T11:15:32.660Z,4.35
2019-05-25T11:18:01.115Z,3.10
2019-05-25T11:20:29.618Z,2.33
2019-05-25T11:22:58.051Z,2.35
2019-05-25T11:25:26.500Z,1.20
2019-05-25T11:27:54.926Z,6.72
2019-05-25T11:30:23.820Z,2.05
2019-05-25T11:32:52.269Z,5.00
2019-05-25T11:35:21.543Z,2.02
2019-05-25T11:37:49.996Z,3.10
2019-05-25T11:40:18.977Z,2.35
2019-05-25T11:42:47.424Z,2.77
2019-05-25T11:45:17.799Z,4.15
2019-05-25T11:47:46.249Z,2.17
2019-05-25T11:50:15.224Z,2.47
2019-05-25T11:52:43.699Z,2.02
2019-05-25T11:55:12.515Z,2.72
2019-05-25T11:57:40.959Z,2.72
2019-05-25T12:00:24.280Z,3.08
2019-05-25T12:02:42.131Z,2.45
2019-05-25T12:05:10.916Z,1.90
2019-05-25T12:07:39.343Z,4.28
2019-05-25T12:10:08.738Z,4.83
2019-05-25T12:12:37.195Z,6.90
2019-05-25T12:15:08.384Z,7.40
2019-05-25T12:17:36.856Z,5.05
2019-05-25T12:20:06.321Z,2.05
2019-05-25T12:22:34.845Z,4.33
2019-05-25T12:25:04.940Z,2.05
2019-05-25T12:27:33.383Z,2.15
2019-05-25T12:30:01.819Z,1.42
2019-05-25T12:32:30.283Z,2.40
2019-05-25T12:34:58.796Z,1.85
2019-05-25T12:37:27.236Z,5.95
2019-05-25T12:39:55.680Z,2.37
2019-05-25T12:42:24.110Z,2.65
2019-05-25T12:44:52.619Z,2.75
2019-05-25T12:47:21.057Z,1.98
2019-05-25T12:49:51.093Z,1.55
2019-05-25T12:52:19.891Z,1.75
2019-05-25T12:54:48.340Z,6.03
2019-05-25T12:57:16.930Z,3.45
2019-05-25T12:59:45.436Z,1.07
2019-05-25T13:02:13.934Z,2.33
2019-05-25T13:04:42.412Z,1.35
2019-05-25T13:07:10.916Z,7.17
2019-05-25T13:09:40.918Z,4.45
2019-05-25T13:12:09.372Z,3.92
2019-05-25T13:14:37.815Z,3.08
2019-05-25T13:17:06.251Z,1.15
2019-05-25T13:19:34.714Z,3.30
2019-05-25T13:22:03.164Z,4.67
2019-05-25T13:24:31.611Z,5.35
2019-05-25T13:27:00.058Z,2.40
2019-05-25T13:29:28.517Z,5.87
2019-05-25T13:31:56.944Z,4.95
2019-05-25T13:34:25.440Z,3.25
2019-05-25T13:36:53.932Z,4.30
2019-05-25T13:39:22.368Z,4.10
2019-05-25T13:41:50.849Z,3.15
2019-05-25T13:44:19.320Z,5.87
2019-05-25T13:46:47.791Z,3.02
2019-05-25T13:49:16.299Z,2.47
2019-05-25T13:51:44.813Z,5.03
2019-05-25T13:54:13.287Z,3.25
2019-05-25T13:56:42.510Z,5.30
2019-05-25T13:59:11.028Z,5.95
2019-05-25T14:01:39.458Z,4.35
2019-05-25T14:04:07.905Z,1.98
2019-05-25T14:06:36.359Z,4.85
2019-05-25T14:09:06.639Z,5.10
2019-05-25T14:11:35.152Z,3.08
2019-05-25T14:14:03.611Z,4.22
2019-05-25T14:16:32.049Z,5.75
2019-05-25T14:19:00.489Z,4.17
2019-05-25T14:21:28.938Z,3.42
2019-05-25T14:23:57.362Z,7.35
2019-05-25T14:26:25.848Z,4.85
2019-05-25T14:28:54.270Z,4.72
2019-05-25T14:31:25.291Z,2.40
2019-05-25T14:33:53.726Z,3.87
2019-05-25T14:36:22.162Z,5.72
2019-05-25T14:38:50.623Z,5.37
2019-05-25T14:41:19.131Z,4.78
2019-05-25T14:43:47.560Z,3.55
2019-05-25T14:46:27.417Z,4.08
2019-05-25T14:48:47.730Z,2.65
2019-05-25T14:51:16.219Z,5.78
2019-05-25T14:53:44.657Z,1.85
2019-05-25T14:56:16.059Z,2.42
2019-05-25T14:58:46.269Z,3.90
2019-05-25T15:01:14.820Z,7.20
2019-05-25T15:03:43.278Z,3.98
2019-05-25T15:06:11.703Z,2.72
2019-05-25T15:08:40.168Z,1.92
2019-05-25T15:11:08.676Z,7.45
2019-05-25T15:13:37.119Z,2.92
2019-05-25T15:16:05.555Z,4.50
2019-05-25T15:18:34.026Z,3.85
2019-05-25T15:21:02.531Z,3.35
2019-05-25T15:23:30.958Z,4.62
2019-05-25T15:25:59.402Z,2.02
2019-05-25T15:28:27.916Z,6.50
2019-05-25T15:30:56.351Z,3.87
2019-05-25T15:33:24.800Z,5.58
2019-05-25T15:35:53.227Z,3.95
2019-05-25T15:38:21.674Z,7.53
2019-05-25T15:40:50.116Z,4.90
2019-05-25T15:43:18.559Z,7.42
2019-05-25T15:45:48.658Z,3.10
2019-05-25T15:48:17.171Z,5.15
2019-05-25T15:50:45.601Z,3.75
2019-05-25T15:53:14.053Z,4.20
2019-05-25T15:55:42.509Z,4.80
2019-05-25T15:58:10.948Z,4.67
2019-05-25T16:00:44.999Z,3.02
2019-05-25T16:03:13.704Z,3.15
2019-05-25T16:05:47.369Z,4.25
2019-05-25T16:08:14.203Z,2.85
2019-05-25T16:10:42.642Z,4.05
2019-05-25T16:13:11.163Z,8.65
2019-05-25T16:15:39.590Z,6.60
2019-05-25T16:18:08.094Z,5.50
2019-05-25T16:20:37.202Z,5.12
2019-05-25T16:23:05.644Z,3.85
2019-05-25T16:25:34.451Z,4.78
2019-05-25T16:28:02.879Z,10.03
2019-05-25T16:30:35.261Z,3.98
2019-05-25T16:33:13.774Z,7.20
2019-05-25T16:35:33.918Z,3.35
2019-05-25T16:38:02.600Z,7.97
2019-05-25T16:40:31.171Z,4.53
2019-05-25T16:42:59.617Z,2.45
2019-05-25T16:45:28.071Z,5.53
2019-05-25T16:47:56.609Z,5.80
2019-05-25T16:50:25.035Z,2.33
2019-05-25T16:52:53.530Z,5.33
2019-05-25T16:55:22.003Z,3.95
2019-05-25T16:57:50.447Z,3.90
2019-05-25T17:00:31.246Z,2.58
2019-05-25T17:02:59.834Z,6.97
2019-05-25T17:05:28.828Z,6.53
2019-05-25T17:08:00.475Z,3.33
2019-05-25T17:10:28.935Z,10.38
2019-05-25T17:12:57.378Z,4.70
2019-05-25T17:15:25.840Z,11.30
2019-05-25T17:17:54.353Z,5.25
2019-05-25T17:20:22.867Z,4.40
2019-05-25T17:22:51.308Z,3.95
2019-05-25T17:25:21.940Z,3.62
2019-05-25T17:27:50.460Z,3.60
2019-05-25T17:30:21.974Z,4.65
2019-05-25T17:32:50.420Z,5.15
2019-05-25T17:35:18.877Z,7.40
2019-05-25T17:37:47.307Z,6.70
2019-05-25T17:40:16.007Z,3.65
2019-05-25T17:42:44.436Z,3.45
2019-05-25T17:45:13.023Z,9.10
2019-05-25T17:47:41.485Z,5.75
2019-05-25T17:50:11.539Z,8.35
2019-05-25T17:52:39.985Z,5.45
2019-05-25T17:55:09.785Z,7.95
2019-05-25T17:57:38.292Z,3.42
2019-05-25T18:00:07.857Z,2.60
2019-05-25T18:02:36.311Z,8.63
2019-05-25T18:05:07.411Z,9.53
2019-05-25T18:07:35.887Z,6.25
2019-05-25T18:10:07.080Z,5.35
2019-05-25T18:12:35.672Z,6.62
2019-05-25T18:15:07.328Z,5.28
2019-05-25T18:17:35.763Z,6.12
2019-05-25T18:20:07.146Z,5.03
2019-05-25T18:22:35.588Z,8.95
2019-05-25T18:25:05.580Z,10.08
2019-05-25T18:27:34.021Z,8.08
2019-05-25T18:30:02.477Z,6.50
2019-05-25T18:32:30.919Z,5.53
2019-05-25T18:34:59.367Z,5.60
2019-05-25T18:37:27.821Z,9.03
2019-05-25T18:39:56.257Z,6.83
2019-05-25T18:42:24.708Z,3.75
2019-05-25T18:44:53.138Z,5.05
2019-05-25T18:47:21.600Z,3.35
2019-05-25T18:49:50.040Z,7.72
2019-05-25T18:52:18.495Z,3.17
2019-05-25T18:54:46.931Z,4.65
2019-05-25T18:57:15.383Z,5.37
2019-05-25T18:59:43.897Z,4.40
2019-05-25T19:02:12.339Z,3.67
2019-05-25T19:04:47.615Z,3.45
2019-05-25T19:07:10.958Z,5.25
2019-05-25T19:09:39.398Z,6.17
2019-05-25T19:12:07.847Z,4.78
2019-05-25T19:14:36.287Z,7.47
2019-05-25T19:17:04.795Z,3.62
2019-05-25T19:19:33.242Z,8.75
2019-05-25T19:22:01.675Z,5.42
2019-05-25T19:24:30.204Z,5.78
2019-05-25T19:26:58.712Z,2.70
2019-05-25T19:29:27.168Z,6.90
2019-05-25T19:31:55.605Z,3.62
2019-05-25T19:34:24.049Z,3.92
2019-05-25T19:36:52.494Z,5.03
2019-05-25T19:39:20.989Z,4.87
2019-05-25T19:41:49.468Z,2.80
2019-05-25T19:44:17.981Z,7.45
2019-05-25T19:46:46.437Z,4.85
2019-05-25T19:49:14.864Z,8.68
2019-05-25T19:51:43.296Z,11.57
2019-05-25T19:54:11.753Z,3.55
2019-05-25T19:56:41.810Z,6.08
2019-05-25T19:59:10.292Z,6.78
2019-05-25T20:01:38.744Z,8.98
2019-05-25T20:04:07.271Z,4.33
2019-05-25T20:06:35.707Z,5.53
2019-05-25T20:09:06.300Z,4.75
2019-05-25T20:11:34.747Z,5.85
2019-05-25T20:14:04.540Z,6.45
2019-05-25T20:16:33.032Z,6.25
2019-05-25T20:19:01.566Z,8.18
2019-05-25T20:21:30.040Z,7.67
2019-05-25T20:23:58.463Z,9.95
2019-05-25T20:26:26.924Z,9.78
2019-05-25T20:29:14.705Z,4.85
2019-05-25T20:31:43.143Z,5.87
2019-05-25T20:34:11.596Z,7.65
2019-05-25T20:36:40.047Z,12.37
2019-05-25T20:39:08.481Z,5.55
2019-05-25T20:41:36.920Z,7.45
2019-05-25T20:44:05.446Z,7.67
2019-05-25T20:46:33.979Z,11.97
2019-05-25T20:49:06.532Z,7.33
2019-05-25T20:51:34.967Z,12.82
2019-05-25T20:54:03.429Z,13.70
2019-05-25T20:56:31.858Z,11.63
2019-05-25T20:59:03.230Z,6.90
2019-05-25T21:01:31.688Z,12.28
2019-05-25T21:04:00.133Z,14.35
2019-05-25T21:06:31.090Z,9.78
2019-05-25T21:09:00.554Z,10.75
2019-05-25T21:11:28.998Z,8.88
2019-05-25T21:13:57.447Z,9.23
2019-05-25T21:16:25.904Z,12.35
2019-05-25T21:18:54.335Z,7.62
2019-05-25T21:21:23.266Z,16.67
2019-05-25T21:23:51.710Z,8.38
2019-05-25T21:26:20.182Z,19.62
2019-05-25T21:28:48.641Z,9.88
2019-05-25T21:31:17.086Z,10.18
2019-05-25T21:33:45.533Z,7.03
2019-05-25T21:36:13.981Z,13.65
2019-05-25T21:38:42.441Z,10.05
2019-05-25T21:41:10.885Z,10.88
2019-05-25T21:43:39.344Z,10.63
2019-05-25T21:46:07.800Z,12.30
2019-05-25T21:48:36.243Z,9.85
2019-05-25T21:51:04.757Z,11.75
2019-05-25T21:53:33.203Z,7.58
2019-05-25T21:56:01.662Z,13.45
2019-05-25T21:58:30.101Z,11.18
2019-05-25T22:00:58.612Z,13.35
2019-05-25T22:03:29.055Z,8.43
2019-05-25T22:05:57.265Z,9.23
2019-05-25T22:08:25.697Z,11.63
2019-05-25T22:10:54.142Z,9.23
2019-05-25T22:13:28.327Z,10.10
2019-05-25T22:15:52.775Z,8.98
2019-05-25T22:18:21.208Z,9.38
2019-05-25T22:20:49.705Z,9.18
2019-05-25T22:23:18.149Z,7.75
2019-05-25T22:25:46.597Z,7.12
2019-05-25T22:28:15.048Z,9.10
2019-05-25T22:30:43.484Z,9.93
2019-05-25T22:33:11.918Z,9.45
2019-05-25T22:35:40.392Z,8.08
2019-05-25T22:38:08.875Z,10.95
2019-05-25T22:40:37.325Z,6.62
2019-05-25T22:43:05.771Z,11.50
2019-05-25T22:45:34.249Z,10.23
2019-05-25T22:48:02.724Z,13.28
2019-05-25T22:50:31.187Z,14.35
2019-05-25T22:53:00.037Z,9.88
2019-05-25T22:55:28.466Z,8.95
2019-05-25T22:57:56.910Z,10.85
2019-05-25T23:00:25.410Z,16.25
2019-05-25T23:02:53.859Z,9.45
2019-05-25T23:05:22.369Z,11.55
2019-05-25T23:07:50.811Z,7.90
2019-05-25T23:10:21.882Z,9.45
2019-05-25T23:12:50.336Z,7.58
2019-05-25T23:15:18.856Z,10.82
2019-05-25T23:17:47.346Z,13.75
2019-05-25T23:20:15.838Z,12.70
2019-05-25T23:22:44.285Z,14.25
2019-05-25T23:25:12.796Z,11.43
2019-05-25T23:27:41.242Z,10.23
2019-05-25T23:30:10.141Z,14.15
2019-05-25T23:32:38.579Z,10.85
2019-05-25T23:35:07.502Z,16.07
2019-05-25T23:37:35.985Z,11.95
2019-05-25T23:40:08.884Z,17.07
2019-05-25T23:42:37.366Z,11.68
2019-05-25T23:45:07.801Z,11.12
2019-05-25T23:47:36.337Z,14.05
2019-05-25T23:50:08.443Z,10.55
2019-05-25T23:52:36.907Z,13.45
2019-05-25T23:55:06.580Z,9.48
2019-05-25T23:57:35.087Z,10.85
